createdAt,value
2019-03-10T00:00:47.989Z,6.30
2019-03-10T00:03:19.372Z,6.00
2019-03-10T00:05:49.214Z,5.63
2019-03-10T00:08:19.062Z,5.77
2019-03-10T00:10:48.834Z,5.13
2019-03-10T00:13:18.626Z,6.20
2019-03-10T00:15:48.394Z,5.93
2019-03-10T00:18:18.187Z,5.97
2019-03-10T00:20:48.098Z,5.60
2019-03-10T00:23:17.912Z,6.97
2019-03-10T00:25:47.684Z,6.87
2019-03-10T00:28:18.150Z,5.80
2019-03-10T00:30:47.940Z,7.80
2019-03-10T00:33:17.750Z,6.03
2019-03-10T00:35:47.525Z,6.13
2019-03-10T00:38:17.302Z,6.03
2019-03-10T00:41:14.131Z,5.97
2019-03-10T00:43:55.262Z,5.70
2019-03-10T00:46:56.882Z,6.17
2019-03-10T00:49:46.487Z,5.80
2019-03-10T00:52:24.904Z,5.20
2019-03-10T00:54:54.687Z,6.10
2019-03-10T00:57:24.472Z,4.83
2019-03-10T00:59:54.323Z,5.47
2019-03-10T01:02:24.095Z,6.33
2019-03-10T01:04:53.908Z,5.43
2019-03-10T01:07:23.681Z,4.77
2019-03-10T01:09:53.466Z,4.33
2019-03-10T01:12:23.303Z,5.57
2019-03-10T01:14:53.099Z,4.50
2019-03-10T01:17:23.201Z,5.20
2019-03-10T01:19:53.758Z,5.43
2019-03-10T01:22:23.523Z,4.23
2019-03-10T01:24:53.323Z,5.17
2019-03-10T01:27:23.099Z,4.97
2019-03-10T01:29:52.880Z,5.00
2019-03-10T01:32:37.086Z,5.00
2019-03-10T01:35:10.066Z,6.10
2019-03-10T01:37:39.854Z,5.27
2019-03-10T01:40:09.872Z,5.03
2019-03-10T01:42:39.672Z,4.90
2019-03-10T01:45:13.058Z,5.00
2019-03-10T01:47:42.840Z,5.03
2019-03-10T01:50:14.056Z,4.90
2019-03-10T01:52:43.841Z,4.37
2019-03-10T01:55:13.893Z,5.43
2019-03-10T01:57:43.670Z,5.23
2019-03-10T02:00:16.556Z,5.33
2019-03-10T02:02:46.410Z,4.23
2019-03-10T02:05:16.194Z,4.67
2019-03-10T02:07:45.970Z,4.27
2019-03-10T02:10:15.738Z,4.80
2019-03-10T02:12:45.528Z,4.57
2019-03-10T02:15:15.970Z,4.83
2019-03-10T02:17:45.762Z,4.83
2019-03-10T02:20:18.803Z,4.70
2019-03-10T02:22:48.588Z,5.70
2019-03-10T02:25:18.364Z,4.60
2019-03-10T02:27:48.203Z,5.00
2019-03-10T02:30:18.613Z,4.63
2019-03-10T02:32:48.470Z,4.40
2019-03-10T02:35:18.255Z,4.80
2019-03-10T02:37:48.051Z,4.60
2019-03-10T02:40:17.821Z,4.97
2019-03-10T02:42:47.602Z,4.87
2019-03-10T02:45:17.441Z,4.47
2019-03-10T02:47:47.264Z,4.63
2019-03-10T02:50:17.107Z,5.07
2019-03-10T02:52:46.885Z,5.37
2019-03-10T02:55:16.683Z,4.43
2019-03-10T02:57:46.523Z,5.57
2019-03-10T03:00:16.379Z,5.67
2019-03-10T03:02:46.258Z,4.73
2019-03-10T03:05:16.091Z,4.00
2019-03-10T03:07:45.941Z,5.07
2019-03-10T03:10:15.720Z,5.67
2019-03-10T03:12:45.490Z,3.67
2019-03-10T03:15:16.264Z,4.23
2019-03-10T03:17:46.120Z,3.47
2019-03-10T03:20:15.916Z,3.27
2019-03-10T03:22:45.683Z,3.20
2019-03-10T03:25:15.481Z,2.83
2019-03-10T03:27:45.253Z,3.13
2019-03-10T03:30:19.034Z,2.60
2019-03-10T03:32:48.847Z,2.90
2019-03-10T03:35:51.921Z,2.60
2019-03-10T03:38:24.628Z,2.37
2019-03-10T03:41:03.790Z,1.83
2019-03-10T03:43:33.562Z,3.37
2019-03-10T03:46:03.378Z,1.93
2019-03-10T03:48:33.275Z,1.80
2019-03-10T03:51:03.078Z,2.30
2019-03-10T03:53:32.922Z,2.47
2019-03-10T03:56:02.703Z,2.73
2019-03-10T03:58:32.536Z,2.10
2019-03-10T04:01:04.060Z,2.57
2019-03-10T04:03:33.828Z,2.60
2019-03-10T04:06:03.611Z,2.40
2019-03-10T04:08:33.399Z,2.27
2019-03-10T04:11:03.196Z,3.13
2019-03-10T04:13:32.982Z,2.33
2019-03-10T04:16:02.784Z,2.10
2019-03-10T04:18:32.552Z,2.27
2019-03-10T04:21:02.339Z,2.60
2019-03-10T04:23:32.130Z,2.90
2019-03-10T04:26:01.904Z,2.10
2019-03-10T04:28:31.693Z,2.20
2019-03-10T04:31:01.463Z,2.60
2019-03-10T04:33:31.251Z,1.97
2019-03-10T04:36:01.022Z,2.70
2019-03-10T04:38:30.802Z,1.90
2019-03-10T04:41:00.593Z,2.67
2019-03-10T04:43:30.376Z,2.10
2019-03-10T04:46:00.150Z,2.87
2019-03-10T04:48:29.949Z,2.10
2019-03-10T04:50:59.727Z,2.50
2019-03-10T04:53:29.522Z,2.23
2019-03-10T04:56:03.591Z,2.10
2019-03-10T04:58:35.007Z,2.50
2019-03-10T05:01:04.779Z,2.07
2019-03-10T05:03:34.558Z,2.67
2019-03-10T05:06:04.344Z,2.13
2019-03-10T05:08:34.195Z,2.47
2019-03-10T05:11:03.984Z,2.13
2019-03-10T05:13:33.758Z,2.30
2019-03-10T05:16:03.696Z,2.20
2019-03-10T05:18:34.563Z,2.10
2019-03-10T05:21:04.342Z,2.07
2019-03-10T05:23:40.871Z,2.77
2019-03-10T05:26:10.718Z,2.37
2019-03-10T05:28:43.059Z,2.13
2019-03-10T05:31:12.825Z,2.00
2019-03-10T05:33:42.687Z,2.03
2019-03-10T05:36:12.473Z,2.03
2019-03-10T05:38:42.269Z,1.93
2019-03-10T05:41:12.050Z,2.10
2019-03-10T05:43:41.835Z,2.30
2019-03-10T05:46:11.611Z,1.47
2019-03-10T05:48:41.395Z,1.90
2019-03-10T05:51:11.177Z,2.10
2019-03-10T05:53:40.941Z,2.53
2019-03-10T05:56:10.715Z,1.80
2019-03-10T05:58:40.482Z,2.43
2019-03-10T06:01:10.262Z,1.60
2019-03-10T06:03:41.112Z,2.20
2019-03-10T06:06:10.908Z,2.77
2019-03-10T06:08:40.675Z,1.97
2019-03-10T06:11:10.467Z,2.20
2019-03-10T06:13:40.236Z,2.63
2019-03-10T06:16:10.029Z,2.97
2019-03-10T06:18:39.804Z,2.00
2019-03-10T06:21:09.582Z,2.47
2019-03-10T06:23:39.350Z,2.50
2019-03-10T06:26:09.150Z,2.33
2019-03-10T06:28:38.930Z,2.13
2019-03-10T06:31:08.693Z,2.60
2019-03-10T06:33:38.474Z,2.27
2019-03-10T06:36:08.248Z,2.73
2019-03-10T06:38:38.031Z,2.60
2019-03-10T06:41:07.803Z,2.97
2019-03-10T06:43:37.588Z,2.30
2019-03-10T06:46:07.360Z,2.43
2019-03-10T06:48:37.147Z,2.50
2019-03-10T06:51:06.919Z,1.60
2019-03-10T06:53:36.688Z,1.90
2019-03-10T06:56:06.455Z,2.33
2019-03-10T06:58:36.247Z,1.80
2019-03-10T07:01:06.076Z,2.27
2019-03-10T07:03:35.860Z,2.00
2019-03-10T07:06:05.632Z,2.17
2019-03-10T07:08:35.412Z,2.10
2019-03-10T07:11:05.267Z,2.80
2019-03-10T07:13:35.052Z,2.30
2019-03-10T07:16:04.901Z,3.17
2019-03-10T07:18:34.680Z,2.53
2019-03-10T07:21:04.479Z,2.93
2019-03-10T07:23:34.255Z,2.60
2019-03-10T07:26:06.999Z,3.23
2019-03-10T07:28:44.022Z,2.90
2019-03-10T07:31:17.892Z,2.93
2019-03-10T07:33:52.303Z,3.50
2019-03-10T07:36:24.537Z,3.73
2019-03-10T07:39:07.987Z,3.57
2019-03-10T07:41:48.559Z,3.83
2019-03-10T07:44:37.943Z,3.10
2019-03-10T07:47:27.615Z,3.07
2019-03-10T07:50:04.973Z,4.10
2019-03-10T07:52:36.395Z,3.97
2019-03-10T07:55:11.199Z,3.03
2019-03-10T07:57:42.623Z,3.77
2019-03-10T08:00:19.995Z,4.00
2019-03-10T08:02:54.543Z,4.23
2019-03-10T08:05:25.959Z,4.13
2019-03-10T08:08:15.775Z,3.70
2019-03-10T08:10:47.200Z,3.37
2019-03-10T08:13:28.769Z,4.20
2019-03-10T08:16:03.143Z,4.47
2019-03-10T08:18:46.147Z,4.10
2019-03-10T08:21:29.371Z,3.90
2019-03-10T08:24:00.811Z,4.43
2019-03-10T08:26:35.203Z,4.33
2019-03-10T08:29:12.232Z,3.90
2019-03-10T08:31:43.667Z,4.10
2019-03-10T08:34:31.306Z,5.43
2019-03-10T08:37:11.812Z,4.47
2019-03-10T08:39:45.962Z,5.30
2019-03-10T08:42:20.902Z,4.77
2019-03-10T08:45:08.905Z,2.97
2019-03-10T08:47:40.315Z,2.60
2019-03-10T08:50:24.915Z,3.33
2019-03-10T08:52:57.751Z,2.33
2019-03-10T08:55:35.356Z,1.30
2019-03-10T08:58:15.499Z,1.40
2019-03-10T09:00:52.679Z,1.30
2019-03-10T09:03:40.603Z,1.23
2019-03-10T09:06:12.063Z,1.50
2019-03-10T09:08:49.672Z,1.07
2019-03-10T09:11:23.966Z,1.33
2019-03-10T09:13:58.043Z,1.23
2019-03-10T09:16:38.108Z,0.97
2019-03-10T09:19:25.564Z,1.43
2019-03-10T09:22:00.327Z,1.23
2019-03-10T09:24:48.308Z,1.40
2019-03-10T09:27:38.059Z,1.10
2019-03-10T09:30:17.992Z,1.13
2019-03-10T09:32:49.442Z,1.00
2019-03-10T09:35:20.856Z,1.00
2019-03-10T09:37:58.244Z,1.23
2019-03-10T09:40:46.250Z,0.97
2019-03-10T09:43:26.476Z,1.00
2019-03-10T09:46:00.980Z,1.17
2019-03-10T09:48:44.664Z,1.10
2019-03-10T09:51:32.360Z,1.00
2019-03-10T09:54:22.109Z,1.53
2019-03-10T09:56:56.434Z,1.23
2019-03-10T09:59:39.886Z,1.10
2019-03-10T10:02:12.208Z,1.30
2019-03-10T10:04:46.807Z,1.30
2019-03-10T10:07:21.187Z,1.62
2019-03-10T10:09:55.557Z,1.25
2019-03-10T10:12:36.207Z,1.52
2019-03-10T10:15:23.883Z,2.10
2019-03-10T10:17:55.328Z,1.60
2019-03-10T10:20:29.731Z,1.60
2019-03-10T10:23:04.177Z,1.62
2019-03-10T10:25:35.670Z,1.87
2019-03-10T10:28:11.009Z,2.12
2019-03-10T10:30:58.647Z,1.90
2019-03-10T10:33:39.959Z,2.20
2019-03-10T10:36:17.323Z,2.07
2019-03-10T10:38:48.762Z,2.30
2019-03-10T10:41:35.255Z,2.70
2019-03-10T10:44:18.531Z,2.30
2019-03-10T10:47:05.903Z,2.43
2019-03-10T10:49:43.051Z,5.10
2019-03-10T10:52:14.497Z,5.20
2019-03-10T10:54:57.895Z,6.13
2019-03-10T10:57:35.130Z,4.30
2019-03-10T11:00:09.619Z,3.52
2019-03-10T11:02:43.989Z,3.33
2019-03-10T11:05:15.562Z,3.00
2019-03-10T11:07:47.022Z,3.90
2019-03-10T11:10:36.688Z,3.60
2019-03-10T11:13:20.055Z,2.23
2019-03-10T11:16:00.590Z,2.47
2019-03-10T11:18:32.020Z,2.30
2019-03-10T11:21:06.604Z,2.10
2019-03-10T11:23:47.010Z,2.20
2019-03-10T11:26:26.947Z,3.10
2019-03-10T11:29:00.899Z,2.63
2019-03-10T11:31:37.254Z,2.40
2019-03-10T11:34:28.071Z,2.57
2019-03-10T11:37:02.082Z,2.60
2019-03-10T11:39:36.066Z,2.37
2019-03-10T11:42:07.491Z,2.40
2019-03-10T11:44:38.920Z,2.30
2019-03-10T11:47:10.343Z,2.83
2019-03-10T11:49:58.238Z,2.70
2019-03-10T11:52:29.655Z,2.80
2019-03-10T11:55:03.857Z,3.97
2019-03-10T11:57:41.304Z,3.20
2019-03-10T12:00:30.004Z,3.03
2019-03-10T12:03:04.231Z,3.40
2019-03-10T12:05:47.851Z,2.70
2019-03-10T12:08:19.293Z,2.87
2019-03-10T12:10:49.083Z,3.40
2019-03-10T12:13:18.859Z,2.63
2019-03-10T12:16:00.500Z,2.50
2019-03-10T12:18:30.287Z,4.10
2019-03-10T12:21:00.082Z,3.50
2019-03-10T12:23:29.868Z,2.97
2019-03-10T12:25:59.659Z,2.87
2019-03-10T12:28:29.468Z,3.00
2019-03-10T12:30:59.253Z,2.80
2019-03-10T12:33:29.048Z,3.57
2019-03-10T12:35:58.830Z,3.30
2019-03-10T12:38:28.629Z,3.40
2019-03-10T12:40:58.408Z,3.77
2019-03-10T12:43:28.204Z,3.37
2019-03-10T12:45:57.988Z,3.13
2019-03-10T12:48:27.794Z,2.30
2019-03-10T12:50:57.580Z,2.47
2019-03-10T12:53:27.372Z,2.80
2019-03-10T12:55:57.158Z,2.40
2019-03-10T12:58:26.952Z,1.97
2019-03-10T13:01:05.633Z,2.40
2019-03-10T13:03:28.251Z,2.73
2019-03-10T13:05:58.080Z,2.53
2019-03-10T13:08:27.882Z,2.67
2019-03-10T13:10:57.660Z,2.83
2019-03-10T13:13:27.448Z,2.43
2019-03-10T13:15:57.243Z,3.43
2019-03-10T13:18:27.041Z,3.17
2019-03-10T13:20:56.816Z,2.73
2019-03-10T13:23:26.607Z,3.27
2019-03-10T13:25:56.398Z,4.20
2019-03-10T13:28:26.176Z,3.23
2019-03-10T13:30:55.974Z,2.80
2019-03-10T13:33:25.752Z,3.07
2019-03-10T13:35:57.053Z,2.53
2019-03-10T13:38:27.094Z,1.93
2019-03-10T13:40:56.887Z,2.23
2019-03-10T13:43:26.667Z,2.23
2019-03-10T13:45:56.544Z,2.67
2019-03-10T13:48:26.360Z,2.53
2019-03-10T13:50:56.211Z,2.60
2019-03-10T13:53:25.996Z,2.30
2019-03-10T13:55:55.796Z,1.93
2019-03-10T13:58:25.575Z,2.27
2019-03-10T14:00:55.450Z,1.63
2019-03-10T14:03:25.243Z,2.50
2019-03-10T14:05:55.002Z,1.27
2019-03-10T14:08:24.783Z,0.87
2019-03-10T14:10:54.647Z,1.30
2019-03-10T14:13:24.439Z,1.57
2019-03-10T14:15:54.218Z,0.93
2019-03-10T14:18:25.087Z,0.83
2019-03-10T14:20:54.945Z,0.63
2019-03-10T14:23:24.738Z,0.73
2019-03-10T14:25:54.503Z,0.50
2019-03-10T14:28:24.303Z,1.27
2019-03-10T14:30:54.144Z,0.90
2019-03-10T14:33:23.935Z,1.60
2019-03-10T14:35:53.723Z,0.90
2019-03-10T14:38:23.511Z,0.63
2019-03-10T14:40:53.275Z,0.73
2019-03-10T14:43:23.153Z,0.70
2019-03-10T14:45:52.923Z,0.77
2019-03-10T14:48:22.761Z,0.80
2019-03-10T14:50:52.562Z,1.03
2019-03-10T14:53:22.408Z,0.50
2019-03-10T14:55:52.208Z,0.70
2019-03-10T14:58:23.044Z,0.43
2019-03-10T15:00:52.903Z,0.70
2019-03-10T15:03:22.698Z,1.33
2019-03-10T15:05:52.463Z,0.60
2019-03-10T15:08:22.239Z,1.30
2019-03-10T15:10:52.031Z,1.70
2019-03-10T15:13:22.880Z,1.10
2019-03-10T15:15:52.685Z,1.10
2019-03-10T15:18:22.466Z,1.17
2019-03-10T15:20:52.259Z,1.30
2019-03-10T15:23:22.035Z,1.07
2019-03-10T15:25:51.909Z,1.00
2019-03-10T15:28:21.675Z,0.80
2019-03-10T15:30:51.450Z,1.00
2019-03-10T15:33:21.252Z,1.00
2019-03-10T15:35:51.064Z,0.85
2019-03-10T15:38:20.894Z,0.80
2019-03-10T15:40:50.662Z,0.80
2019-03-10T15:43:20.463Z,0.80
2019-03-10T15:45:50.818Z,0.80
2019-03-10T15:48:20.595Z,0.68
2019-03-10T15:50:50.376Z,1.47
2019-03-10T15:53:20.159Z,1.03
2019-03-10T15:55:49.951Z,0.70
2019-03-10T15:58:19.741Z,0.70
2019-03-10T16:00:50.492Z,0.93
2019-03-10T16:03:20.298Z,1.50
2019-03-10T16:05:50.067Z,1.00
2019-03-10T16:08:19.879Z,0.83
2019-03-10T16:10:49.655Z,0.70
2019-03-10T16:13:19.442Z,0.80
2019-03-10T16:15:49.320Z,1.20
2019-03-10T16:18:19.106Z,1.00
2019-03-10T16:20:48.894Z,0.70
2019-03-10T16:23:18.656Z,0.90
2019-03-10T16:25:48.461Z,0.70
2019-03-10T16:28:18.215Z,0.90
2019-03-10T16:30:47.990Z,1.17
2019-03-10T16:33:17.758Z,1.17
2019-03-10T16:35:47.532Z,0.83
2019-03-10T16:38:17.313Z,1.10
2019-03-10T16:40:47.082Z,1.00
2019-03-10T16:43:16.856Z,1.10
2019-03-10T16:45:46.645Z,1.30
2019-03-10T16:48:16.407Z,1.17
2019-03-10T16:50:46.186Z,1.03
2019-03-10T16:53:15.954Z,1.20
2019-03-10T16:55:45.744Z,1.20
2019-03-10T16:58:16.580Z,1.97
2019-03-10T17:00:46.373Z,0.80
2019-03-10T17:03:16.175Z,0.77
2019-03-10T17:05:45.953Z,1.17
2019-03-10T17:08:15.724Z,1.07
2019-03-10T17:10:45.492Z,0.80
2019-03-10T17:13:15.270Z,1.40
2019-03-10T17:15:45.108Z,1.00
2019-03-10T17:18:14.896Z,0.83
2019-03-10T17:20:44.668Z,1.03
2019-03-10T17:23:14.452Z,1.03
2019-03-10T17:25:44.215Z,0.70
2019-03-10T17:28:14.012Z,0.63
2019-03-10T17:30:43.777Z,1.13
2019-03-10T17:33:13.628Z,1.00
2019-03-10T17:35:44.374Z,0.93
2019-03-10T17:38:14.156Z,1.53
2019-03-10T17:40:43.932Z,1.30
2019-03-10T17:43:13.708Z,1.05
2019-03-10T17:45:43.495Z,1.00
2019-03-10T17:48:13.365Z,1.27
2019-03-10T17:50:43.177Z,1.30
2019-03-10T17:53:13.821Z,1.50
2019-03-10T17:55:43.625Z,1.47
2019-03-10T17:58:13.514Z,1.40
2019-03-10T18:00:43.312Z,1.57
2019-03-10T18:03:13.084Z,1.45
2019-03-10T18:05:42.872Z,1.22
2019-03-10T18:08:12.635Z,1.42
2019-03-10T18:10:42.427Z,1.20
2019-03-10T18:13:12.213Z,1.22
2019-03-10T18:15:41.998Z,1.50
2019-03-10T18:18:11.762Z,1.52
2019-03-10T18:20:41.540Z,1.30
2019-03-10T18:23:11.316Z,1.75
2019-03-10T18:25:41.105Z,1.70
2019-03-10T18:28:10.864Z,1.40
2019-03-10T18:30:40.735Z,1.32
2019-03-10T18:33:10.495Z,1.90
2019-03-10T18:35:40.273Z,1.50
2019-03-10T18:38:10.043Z,1.47
2019-03-10T18:40:39.844Z,1.52
2019-03-10T18:43:09.603Z,1.40
2019-03-10T18:45:39.386Z,1.10
2019-03-10T18:48:09.164Z,1.25
2019-03-10T18:50:38.964Z,1.50
2019-03-10T18:53:08.750Z,1.50
2019-03-10T18:55:38.527Z,1.42
2019-03-10T18:58:08.379Z,3.25
2019-03-10T19:00:38.168Z,2.15
2019-03-10T19:03:07.941Z,1.80
2019-03-10T19:05:37.743Z,2.17
2019-03-10T19:08:08.111Z,1.70
2019-03-10T19:10:37.897Z,1.42
2019-03-10T19:13:07.737Z,1.50
2019-03-10T19:15:38.243Z,1.50
2019-03-10T19:18:08.021Z,1.20
2019-03-10T19:20:38.860Z,1.90
2019-03-10T19:23:08.647Z,1.80
2019-03-10T19:25:38.443Z,1.57
2019-03-10T19:28:08.245Z,1.70
2019-03-10T19:30:38.018Z,1.67
2019-03-10T19:33:07.898Z,1.90
2019-03-10T19:35:37.670Z,1.92
2019-03-10T19:38:07.459Z,2.70
2019-03-10T19:40:37.306Z,5.10
2019-03-10T19:43:07.091Z,2.60
2019-03-10T19:45:36.863Z,2.00
2019-03-10T19:48:07.196Z,1.50
2019-03-10T19:50:36.975Z,1.50
2019-03-10T19:53:06.811Z,1.42
2019-03-10T19:55:36.670Z,1.87
2019-03-10T19:58:06.431Z,5.30
2019-03-10T20:00:36.221Z,2.00
2019-03-10T20:03:06.059Z,2.00
2019-03-10T20:05:35.839Z,2.10
2019-03-10T20:08:05.608Z,1.90
2019-03-10T20:10:36.458Z,1.93
2019-03-10T20:13:06.367Z,1.83
2019-03-10T20:15:36.151Z,1.90
2019-03-10T20:18:05.945Z,2.67
2019-03-10T20:20:35.750Z,2.90
2019-03-10T20:23:05.655Z,2.30
2019-03-10T20:25:35.499Z,2.50
2019-03-10T20:28:05.275Z,2.30
2019-03-10T20:30:35.241Z,1.57
2019-03-10T20:33:05.108Z,1.20
2019-03-10T20:35:35.259Z,1.00
2019-03-10T20:38:05.087Z,1.10
2019-03-10T20:40:34.882Z,0.93
2019-03-10T20:43:04.715Z,0.97
2019-03-10T20:45:34.520Z,0.80
2019-03-10T20:48:04.304Z,1.10
2019-03-10T20:50:34.086Z,1.20
2019-03-10T20:53:04.119Z,1.20
2019-03-10T20:55:33.930Z,1.40
2019-03-10T20:58:03.780Z,1.37
2019-03-10T21:00:34.451Z,1.20
2019-03-10T21:03:04.305Z,1.37
2019-03-10T21:05:34.074Z,1.40
2019-03-10T21:08:03.864Z,2.10
2019-03-10T21:10:33.657Z,2.13
2019-03-10T21:13:03.442Z,2.50
2019-03-10T21:15:33.214Z,2.43
2019-03-10T21:18:02.988Z,3.10
2019-03-10T21:20:32.790Z,2.50
2019-03-10T21:23:02.553Z,2.60
2019-03-10T21:25:33.093Z,2.57
2019-03-10T21:28:02.881Z,2.60
2019-03-10T21:30:33.807Z,3.53
2019-03-10T21:33:03.598Z,3.20
2019-03-10T21:35:33.756Z,2.70
2019-03-10T21:38:03.703Z,3.43
2019-03-10T21:40:36.247Z,2.17
2019-03-10T21:43:06.031Z,1.30
2019-03-10T21:45:35.885Z,2.23
2019-03-10T21:48:05.674Z,2.10
2019-03-10T21:50:35.446Z,1.70
2019-03-10T21:53:06.305Z,2.10
2019-03-10T21:55:36.072Z,2.60
2019-03-10T21:58:05.953Z,2.90
2019-03-10T22:00:35.719Z,1.80
2019-03-10T22:03:05.515Z,2.07
2019-03-10T22:05:35.286Z,1.80
2019-03-10T22:08:05.142Z,1.80
2019-03-10T22:10:34.907Z,2.00
2019-03-10T22:13:04.756Z,1.83
2019-03-10T22:15:41.621Z,2.17
2019-03-10T22:18:06.083Z,2.13
2019-03-10T22:20:35.853Z,3.00
2019-03-10T22:23:05.647Z,2.70
2019-03-10T22:25:35.487Z,2.07
2019-03-10T22:28:05.257Z,2.37
2019-03-10T22:30:35.047Z,1.90
2019-03-10T22:33:04.815Z,2.07
2019-03-10T22:35:34.611Z,2.10
2019-03-10T22:38:04.443Z,2.10
2019-03-10T22:40:34.227Z,1.90
2019-03-10T22:43:03.992Z,1.90
2019-03-10T22:45:33.769Z,1.70
2019-03-10T22:48:03.603Z,1.70
2019-03-10T22:50:33.394Z,1.80
2019-03-10T22:53:03.153Z,1.57
2019-03-10T22:55:32.954Z,1.67
2019-03-10T22:58:02.695Z,2.03
2019-03-10T23:00:37.147Z,1.80
2019-03-10T23:03:08.787Z,1.87
2019-03-10T23:05:38.571Z,1.53
2019-03-10T23:08:08.332Z,1.97
2019-03-10T23:10:38.118Z,1.80
2019-03-10T23:13:07.893Z,2.10
2019-03-10T23:15:37.682Z,2.33
2019-03-10T23:18:07.518Z,2.37
2019-03-10T23:20:37.333Z,2.10
2019-03-10T23:23:07.115Z,2.03
2019-03-10T23:25:36.916Z,2.37
2019-03-10T23:28:06.731Z,2.47
2019-03-10T23:30:36.574Z,1.43
2019-03-10T23:33:06.358Z,2.03
2019-03-10T23:35:36.147Z,3.03
2019-03-10T23:38:07.053Z,1.97
2019-03-10T23:40:36.854Z,2.73
2019-03-10T23:43:06.649Z,2.63
2019-03-10T23:45:36.436Z,2.00
2019-03-10T23:48:06.231Z,2.97
2019-03-10T23:50:35.996Z,2.73
2019-03-10T23:53:05.785Z,2.00
2019-03-10T23:55:35.546Z,2.33
2019-03-10T23:58:05.340Z,2.60
